createdAt,value
2018-11-01T00:00:51.713Z,5.03
2018-11-01T00:03:20.264Z,5.30
2018-11-01T00:05:49.475Z,5.15
2018-11-01T00:08:17.931Z,5.75
2018-11-01T00:10:46.422Z,5.37
2018-11-01T00:13:14.879Z,4.92
2018-11-01T00:15:43.406Z,4.35
2018-11-01T00:18:11.898Z,6.40
2018-11-01T00:20:40.447Z,4.40
2018-11-01T00:23:08.935Z,4.35
2018-11-01T00:25:37.391Z,6.12
2018-11-01T00:28:05.932Z,5.08
2018-11-01T00:30:34.423Z,4.55
2018-11-01T00:33:03.002Z,4.22
2018-11-01T00:35:32.126Z,7.33
2018-11-01T00:38:01.152Z,4.80
2018-11-01T00:40:30.459Z,5.53
2018-11-01T00:42:59.154Z,6.45
2018-11-01T00:45:28.015Z,4.87
2018-11-01T00:47:56.702Z,4.45
2018-11-01T00:50:25.223Z,6.45
2018-11-01T00:52:53.715Z,3.83
2018-11-01T00:55:22.131Z,6.28
2018-11-01T00:57:50.634Z,5.40
2018-11-01T01:00:19.111Z,5.90
2018-11-01T01:02:47.575Z,4.62
2018-11-01T01:05:16.358Z,4.80
2018-11-01T01:07:49.376Z,4.83
2018-11-01T01:10:18.583Z,5.45
2018-11-01T01:12:48.034Z,4.87
2018-11-01T01:15:16.530Z,5.12
2018-11-01T01:17:49.432Z,6.67
2018-11-01T01:20:18.097Z,4.05
2018-11-01T01:22:47.239Z,4.20
2018-11-01T01:25:16.946Z,5.03
2018-11-01T01:27:46.048Z,7.78
2018-11-01T01:30:16.943Z,4.33
2018-11-01T01:32:47.216Z,4.83
2018-11-01T01:35:16.299Z,3.87
2018-11-01T01:37:46.072Z,4.22
2018-11-01T01:40:14.763Z,4.53
2018-11-01T01:42:50.147Z,3.67
2018-11-01T01:45:18.721Z,3.80
2018-11-01T01:47:47.661Z,4.37
2018-11-01T01:50:17.235Z,4.30
2018-11-01T01:52:46.689Z,4.15
2018-11-01T01:55:15.712Z,4.25
2018-11-01T01:57:45.588Z,5.25
2018-11-01T02:00:16.887Z,3.50
2018-11-01T02:02:48.113Z,4.22
2018-11-01T02:05:17.233Z,4.90
2018-11-01T02:07:46.514Z,5.70
2018-11-01T02:10:19.612Z,4.33
2018-11-01T02:12:48.302Z,4.85
2018-11-01T02:15:18.808Z,3.05
2018-11-01T02:17:47.375Z,4.45
2018-11-01T02:20:16.997Z,3.50
2018-11-01T02:22:45.884Z,4.10
2018-11-01T02:25:14.379Z,4.30
2018-11-01T02:27:48.665Z,8.48
2018-11-01T02:30:17.962Z,4.12
2018-11-01T02:32:46.942Z,3.83
2018-11-01T02:35:16.922Z,3.52
2018-11-01T02:37:46.228Z,4.65
2018-11-01T02:40:15.421Z,4.00
2018-11-01T02:42:44.516Z,4.35
2018-11-01T02:45:14.062Z,6.37
2018-11-01T02:47:42.860Z,6.53
2018-11-01T02:50:12.413Z,4.42
2018-11-01T02:52:41.208Z,4.78
2018-11-01T02:55:10.474Z,4.28
2018-11-01T02:57:38.956Z,5.03
2018-11-01T03:00:10.288Z,4.08
2018-11-01T03:02:38.819Z,4.37
2018-11-01T03:05:07.676Z,3.75
2018-11-01T03:07:36.370Z,3.80
2018-11-01T03:10:06.080Z,3.52
2018-11-01T03:12:34.488Z,3.30
2018-11-01T03:15:03.052Z,3.42
2018-11-01T03:17:31.454Z,3.52
2018-11-01T03:20:00.451Z,4.37
2018-11-01T03:22:29.874Z,4.00
2018-11-01T03:25:00.014Z,5.10
2018-11-01T03:27:28.890Z,4.62
2018-11-01T03:29:57.717Z,3.70
2018-11-01T03:32:26.428Z,4.15
2018-11-01T03:34:55.392Z,3.65
2018-11-01T03:37:24.100Z,5.22
2018-11-01T03:39:53.225Z,4.95
2018-11-01T03:42:23.008Z,3.55
2018-11-01T03:44:52.126Z,4.92
2018-11-01T03:47:21.388Z,4.40
2018-11-01T03:49:50.198Z,5.87
2018-11-01T03:52:18.897Z,5.15
2018-11-01T03:54:47.791Z,4.55
2018-11-01T03:57:17.012Z,4.97
2018-11-01T03:59:45.617Z,5.08
2018-11-01T04:02:14.036Z,3.98
2018-11-01T04:04:42.530Z,4.50
2018-11-01T04:07:11.005Z,4.12
2018-11-01T04:09:40.248Z,3.42
2018-11-01T04:12:08.718Z,7.90
2018-11-01T04:14:37.223Z,4.37
2018-11-01T04:17:05.675Z,4.67
2018-11-01T04:19:34.047Z,3.65
2018-11-01T04:22:06.016Z,5.35
2018-11-01T04:24:35.725Z,4.30
2018-11-01T04:27:04.652Z,4.50
2018-11-01T04:29:35.277Z,4.70
2018-11-01T04:32:03.841Z,5.75
2018-11-01T04:34:32.274Z,4.62
2018-11-01T04:37:00.826Z,5.00
2018-11-01T04:39:29.848Z,5.70
2018-11-01T04:41:59.441Z,5.00
2018-11-01T04:44:28.061Z,4.37
2018-11-01T04:46:57.370Z,6.20
2018-11-01T04:49:26.190Z,5.37
2018-11-01T04:51:54.837Z,4.25
2018-11-01T04:54:23.634Z,4.62
2018-11-01T04:56:52.373Z,5.90
2018-11-01T04:59:21.212Z,7.25
2018-11-01T05:01:49.724Z,4.83
2018-11-01T05:04:18.094Z,5.05
2018-11-01T05:06:46.631Z,3.90
2018-11-01T05:09:15.036Z,4.62
2018-11-01T05:11:43.499Z,5.08
2018-11-01T05:14:12.058Z,3.70
2018-11-01T05:16:40.559Z,5.28
2018-11-01T05:19:09.718Z,4.75
2018-11-01T05:21:38.219Z,5.00
2018-11-01T05:24:06.709Z,4.10
2018-11-01T05:26:35.519Z,4.47
2018-11-01T05:29:04.223Z,4.47
2018-11-01T05:31:32.752Z,4.37
2018-11-01T05:34:01.472Z,5.47
2018-11-01T05:36:30.148Z,6.33
2018-11-01T05:38:58.581Z,4.78
2018-11-01T05:41:26.973Z,6.85
2018-11-01T05:43:55.965Z,5.67
2018-11-01T05:46:24.290Z,7.22
2018-11-01T05:48:52.667Z,10.93
2018-11-01T05:51:21.029Z,12.07
2018-11-01T05:53:49.461Z,13.08
2018-11-01T05:56:17.782Z,12.80
2018-11-01T05:58:46.326Z,12.03
2018-11-01T06:01:18.919Z,8.50
2018-11-01T06:03:47.441Z,9.33
2018-11-01T06:06:15.871Z,7.95
2018-11-01T06:08:45.718Z,11.50
2018-11-01T06:11:14.064Z,7.45
2018-11-01T06:13:42.462Z,5.37
2018-11-01T06:16:10.867Z,6.37
2018-11-01T06:18:39.319Z,4.50
2018-11-01T06:21:07.723Z,4.80
2018-11-01T06:23:36.199Z,5.33
2018-11-01T06:26:06.018Z,5.42
2018-11-01T06:28:34.384Z,4.90
2018-11-01T06:31:02.895Z,4.37
2018-11-01T06:33:31.426Z,4.22
2018-11-01T06:36:02.952Z,5.78
2018-11-01T06:38:31.352Z,7.25
2018-11-01T06:40:59.736Z,5.00
2018-11-01T06:43:28.075Z,4.08
2018-11-01T06:45:56.588Z,4.40
2018-11-01T06:48:24.998Z,7.40
2018-11-01T06:50:53.393Z,4.20
2018-11-01T06:53:21.783Z,4.15
2018-11-01T06:55:50.201Z,4.58
2018-11-01T06:58:18.602Z,4.30
2018-11-01T07:00:46.982Z,8.15
2018-11-01T07:03:15.327Z,4.95
2018-11-01T07:05:43.837Z,4.70
2018-11-01T07:08:12.234Z,4.75
2018-11-01T07:10:40.633Z,5.85
2018-11-01T07:13:09.126Z,4.95
2018-11-01T07:15:37.571Z,5.03
2018-11-01T07:18:06.138Z,4.50
2018-11-01T07:20:34.850Z,3.90
2018-11-01T07:23:03.255Z,4.22
2018-11-01T07:25:31.753Z,9.78
2018-11-01T07:28:00.046Z,3.80
2018-11-01T07:30:28.438Z,4.62
2018-11-01T07:32:56.935Z,4.70
2018-11-01T07:35:25.340Z,5.15
2018-11-01T07:37:53.729Z,3.87
2018-11-01T07:40:22.094Z,4.87
2018-11-01T07:42:50.524Z,4.30
2018-11-01T07:45:18.933Z,5.15
2018-11-01T07:47:47.952Z,7.33
2018-11-01T07:50:16.397Z,5.97
2018-11-01T07:52:44.865Z,8.13
2018-11-01T07:55:14.523Z,9.18
2018-11-01T07:57:42.920Z,4.03
2018-11-01T08:00:13.779Z,6.55
2018-11-01T08:02:42.913Z,3.80
2018-11-01T08:05:12.472Z,9.95
2018-11-01T08:07:41.327Z,6.45
2018-11-01T08:10:13.356Z,6.87
2018-11-01T08:12:42.677Z,8.65
2018-11-01T08:15:16.921Z,13.13
2018-11-01T08:17:45.879Z,10.93
2018-11-01T08:20:15.971Z,10.60
2018-11-01T08:22:44.131Z,7.33
2018-11-01T08:25:13.168Z,5.58
2018-11-01T08:27:42.332Z,7.37
2018-11-01T08:30:12.710Z,5.80
2018-11-01T08:32:41.247Z,5.60
2018-11-01T08:35:10.495Z,4.55
2018-11-01T08:37:39.278Z,4.95
2018-11-01T08:40:08.561Z,9.90
2018-11-01T08:42:36.943Z,5.33
2018-11-01T08:45:06.609Z,9.58
2018-11-01T08:47:34.958Z,7.12
2018-11-01T08:50:03.540Z,7.47
2018-11-01T08:52:32.012Z,11.38
2018-11-01T08:55:00.397Z,8.40
2018-11-01T08:57:28.852Z,7.45
2018-11-01T08:59:57.244Z,6.80
2018-11-01T09:02:25.632Z,5.70
2018-11-01T09:04:54.108Z,5.03
2018-11-01T09:07:22.568Z,4.55
2018-11-01T09:09:50.908Z,5.47
2018-11-01T09:12:19.885Z,4.30
2018-11-01T09:14:48.479Z,7.40
2018-11-01T09:17:16.934Z,5.08
2018-11-01T09:19:45.334Z,6.95
2018-11-01T09:22:13.744Z,6.40
2018-11-01T09:24:42.094Z,5.33
2018-11-01T09:27:10.570Z,4.25
2018-11-01T09:29:38.930Z,5.45
2018-11-01T09:32:07.330Z,5.75
2018-11-01T09:34:35.757Z,6.45
2018-11-01T09:37:09.095Z,4.53
2018-11-01T09:39:37.531Z,6.55
2018-11-01T09:42:06.889Z,7.90
2018-11-01T09:44:35.254Z,5.08
2018-11-01T09:47:04.751Z,8.83
2018-11-01T09:49:32.730Z,4.75
2018-11-01T09:52:01.189Z,8.43
2018-11-01T09:54:29.565Z,5.90
2018-11-01T09:56:57.958Z,4.47
2018-11-01T09:59:26.392Z,4.90
2018-11-01T10:18:54.816Z,7.23
2018-11-01T10:21:23.271Z,9.03
2018-11-01T10:23:51.672Z,7.80
2018-11-01T10:26:20.005Z,6.12
2018-11-01T10:28:48.436Z,5.72
2018-11-01T10:31:16.839Z,8.18
2018-11-01T10:33:45.275Z,7.22
2018-11-01T10:36:13.602Z,10.85
2018-11-01T10:38:41.978Z,5.90
2018-11-01T10:41:10.439Z,8.38
2018-11-01T10:43:38.855Z,8.30
2018-11-01T10:46:08.022Z,5.90
2018-11-01T10:48:36.418Z,8.25
2018-11-01T10:51:05.100Z,6.95
2018-11-01T10:53:33.566Z,7.55
2018-11-01T10:56:02.169Z,6.92
2018-11-01T10:58:31.150Z,6.53
2018-11-01T11:01:04.921Z,8.68
2018-11-01T11:03:34.646Z,7.08
2018-11-01T11:06:03.043Z,8.75
2018-11-01T11:08:32.406Z,8.53
2018-11-01T11:11:00.819Z,14.13
2018-11-01T11:13:29.339Z,10.78
2018-11-01T11:15:57.748Z,8.85
2018-11-01T11:18:26.131Z,6.80
2018-11-01T11:20:54.912Z,11.50
2018-11-01T11:23:23.793Z,8.55
2018-11-01T11:25:52.339Z,7.42
2018-11-01T11:28:20.775Z,16.70
2018-11-01T11:30:49.175Z,11.25
2018-11-01T11:33:17.594Z,8.75
2018-11-01T11:35:46.036Z,12.20
2018-11-01T11:38:14.450Z,12.20
2018-11-01T11:40:42.854Z,12.58
2018-11-01T11:43:11.297Z,8.25
2018-11-01T11:45:39.708Z,13.75
2018-11-01T11:48:08.097Z,12.95
2018-11-01T11:50:38.228Z,8.60
2018-11-01T11:53:06.739Z,9.05
2018-11-01T11:55:35.583Z,9.28
2018-11-01T11:58:03.951Z,14.73
2018-11-01T12:00:32.967Z,8.88
2018-11-01T12:03:01.396Z,7.67
2018-11-01T12:05:29.901Z,12.60
2018-11-01T12:07:58.211Z,8.80
2018-11-01T12:10:26.620Z,9.10
2018-11-01T12:12:55.002Z,8.33
2018-11-01T12:15:23.420Z,9.70
2018-11-01T12:17:51.806Z,9.40
2018-11-01T12:20:20.189Z,9.50
2018-11-01T12:22:48.578Z,8.80
2018-11-01T12:25:17.036Z,9.88
2018-11-01T12:27:45.489Z,9.33
2018-11-01T12:30:13.924Z,11.55
2018-11-01T12:32:42.317Z,9.08
2018-11-01T12:35:11.254Z,11.05
2018-11-01T12:37:43.840Z,8.78
2018-11-01T12:40:13.074Z,8.85
2018-11-01T12:42:41.686Z,8.73
2018-11-01T12:45:11.544Z,13.25
2018-11-01T12:47:41.078Z,9.50
2018-11-01T12:50:11.480Z,9.75
2018-11-01T12:52:40.368Z,7.55
2018-11-01T12:55:08.842Z,11.28
2018-11-01T12:57:37.326Z,8.68
2018-11-01T13:00:06.628Z,13.00
2018-11-01T13:02:35.039Z,7.78
2018-11-01T13:05:03.493Z,8.80
2018-11-01T13:07:32.058Z,8.25
2018-11-01T13:10:00.645Z,10.08
2018-11-01T13:12:29.020Z,11.33
2018-11-01T13:14:57.367Z,12.65
2018-11-01T13:17:25.772Z,9.98
2018-11-01T13:19:54.106Z,9.70
2018-11-01T13:22:22.588Z,8.45
2018-11-01T13:24:51.140Z,8.73
2018-11-01T13:27:19.649Z,10.23
2018-11-01T13:29:48.092Z,8.68
2018-11-01T13:32:16.480Z,12.55
2018-11-01T13:34:46.544Z,11.15
2018-11-01T13:37:15.323Z,11.00
2018-11-01T13:39:44.390Z,12.60
2018-11-01T13:42:13.344Z,9.93
2018-11-01T13:44:42.793Z,8.60
2018-11-01T13:47:11.599Z,9.50
2018-11-01T13:49:39.996Z,29.57
2018-11-01T13:52:08.421Z,8.23
2018-11-01T13:54:40.715Z,8.33
2018-11-01T13:57:09.408Z,8.63
2018-11-01T13:59:37.890Z,11.35
2018-11-01T14:02:06.408Z,7.70
2018-11-01T14:04:34.887Z,8.38
2018-11-01T14:07:03.469Z,7.70
2018-11-01T14:09:31.911Z,8.15
2018-11-01T14:12:00.434Z,8.43
2018-11-01T14:14:29.216Z,8.03
2018-11-01T14:16:57.332Z,7.92
2018-11-01T14:19:25.810Z,16.80
2018-11-01T14:21:54.313Z,10.80
2018-11-01T14:24:22.813Z,9.05
2018-11-01T14:26:51.938Z,9.28
2018-11-01T14:29:20.504Z,9.00
2018-11-01T14:31:50.030Z,10.15
2018-11-01T14:34:18.524Z,13.28
2018-11-01T14:36:46.939Z,9.10
2018-11-01T14:39:15.377Z,10.38
2018-11-01T14:41:43.758Z,10.00
2018-11-01T14:44:12.220Z,8.53
2018-11-01T14:46:40.548Z,13.58
2018-11-01T14:49:08.964Z,8.83
2018-11-01T14:51:38.029Z,10.30
2018-11-01T14:54:07.184Z,11.50
2018-11-01T14:56:36.784Z,9.90
2018-11-01T14:59:04.595Z,9.03
2018-11-01T15:01:31.790Z,11.05
2018-11-01T15:04:00.184Z,10.95
2018-11-01T15:06:28.631Z,9.53
2018-11-01T15:08:56.914Z,9.15
2018-11-01T15:11:25.270Z,8.38
2018-11-01T15:13:53.787Z,9.70
2018-11-01T15:16:22.342Z,7.67
2018-11-01T15:18:51.265Z,7.45
2018-11-01T15:21:19.808Z,7.90
2018-11-01T15:23:48.198Z,9.85
2018-11-01T15:26:16.693Z,10.00
2018-11-01T15:28:45.100Z,8.40
2018-11-01T15:31:13.495Z,8.83
2018-11-01T15:33:42.111Z,8.03
2018-11-01T15:36:10.442Z,10.38
2018-11-01T15:38:38.824Z,7.95
2018-11-01T15:41:12.418Z,7.47
2018-11-01T15:43:41.416Z,7.92
2018-11-01T15:46:11.480Z,8.68
2018-11-01T15:48:40.644Z,8.20
2018-11-01T15:51:13.185Z,8.93
2018-11-01T15:53:41.667Z,7.90
2018-11-01T15:56:10.117Z,17.40
2018-11-01T15:58:38.510Z,8.55
2018-11-01T16:01:06.911Z,7.97
2018-11-01T16:03:35.396Z,10.88
2018-11-01T16:06:03.743Z,9.00
2018-11-01T16:08:32.199Z,15.35
2018-11-01T16:11:05.712Z,8.80
2018-11-01T16:13:34.124Z,11.68
2018-11-01T16:16:02.500Z,8.75
2018-11-01T16:18:30.892Z,8.80
2018-11-01T16:20:59.612Z,9.25
2018-11-01T16:23:28.170Z,12.10
2018-11-01T16:25:56.487Z,10.40
2018-11-01T16:28:24.831Z,11.03
2018-11-01T16:30:53.201Z,10.45
2018-11-01T16:33:21.608Z,10.30
2018-11-01T16:35:50.013Z,11.40
2018-11-01T16:38:18.400Z,10.23
2018-11-01T16:40:46.819Z,11.12
2018-11-01T16:43:15.205Z,12.30
2018-11-01T16:45:43.637Z,11.12
2018-11-01T16:48:12.038Z,11.18
2018-11-01T16:50:40.484Z,11.70
2018-11-01T16:53:09.422Z,14.30
2018-11-01T16:55:37.775Z,11.18
2018-11-01T16:58:06.236Z,13.65
2018-11-01T17:00:34.750Z,25.95
2018-11-01T17:03:03.142Z,16.77
2018-11-01T17:05:31.621Z,15.63
2018-11-01T17:08:00.032Z,13.68
2018-11-01T17:10:28.388Z,13.43
2018-11-01T17:12:56.797Z,16.67
2018-11-01T17:15:25.204Z,19.00
2018-11-01T17:17:53.610Z,13.15
2018-11-01T17:20:21.969Z,13.55
2018-11-01T17:22:50.411Z,12.35
2018-11-01T17:25:18.814Z,13.60
2018-11-01T17:27:47.215Z,17.30
2018-11-01T17:30:15.613Z,14.75
2018-11-01T17:32:50.779Z,15.88
2018-11-01T17:35:19.263Z,15.20
2018-11-01T17:37:47.612Z,11.95
2018-11-01T17:40:16.043Z,15.85
2018-11-01T17:42:44.956Z,18.00
2018-11-01T17:45:13.367Z,12.10
2018-11-01T17:47:42.198Z,17.00
2018-11-01T17:50:12.427Z,13.68
2018-11-01T17:52:41.293Z,14.15
2018-11-01T17:55:09.716Z,12.47
2018-11-01T17:57:38.643Z,12.93
2018-11-01T18:00:13.737Z,17.65
2018-11-01T18:02:42.788Z,15.90
2018-11-01T18:05:11.827Z,11.03
2018-11-01T18:07:40.788Z,15.90
2018-11-01T18:10:11.641Z,11.88
2018-11-01T18:12:40.224Z,14.58
2018-11-01T18:15:12.672Z,13.85
2018-11-01T18:17:41.002Z,14.45
2018-11-01T18:20:10.623Z,14.55
2018-11-01T18:22:39.008Z,14.47
2018-11-01T18:25:12.595Z,14.87
2018-11-01T18:27:41.228Z,12.93
2018-11-01T18:30:11.611Z,14.05
2018-11-01T18:32:40.079Z,14.50
2018-11-01T18:35:09.145Z,14.20
2018-11-01T18:37:37.868Z,13.98
2018-11-01T18:40:07.503Z,15.13
2018-11-01T18:42:35.996Z,13.60
2018-11-01T18:45:04.696Z,14.78
2018-11-01T18:47:33.118Z,14.75
2018-11-01T18:50:01.477Z,17.23
2018-11-01T18:52:29.890Z,14.30
2018-11-01T18:54:58.276Z,15.15
2018-11-01T18:57:26.707Z,14.00
2018-11-01T18:59:55.073Z,15.95
2018-11-01T19:02:23.498Z,16.93
2018-11-01T19:04:51.847Z,15.13
2018-11-01T19:07:20.240Z,15.55
2018-11-01T19:09:48.604Z,15.90
2018-11-01T19:12:17.527Z,16.42
2018-11-01T19:14:45.874Z,16.80
2018-11-01T19:17:14.618Z,15.30
2018-11-01T19:19:43.300Z,16.00
2018-11-01T19:22:11.689Z,25.30
2018-11-01T19:24:40.189Z,18.30
2018-11-01T19:27:08.936Z,19.10
2018-11-01T19:29:37.774Z,16.52
2018-11-01T19:32:06.598Z,17.42
2018-11-01T19:34:35.128Z,17.77
2018-11-01T19:37:03.405Z,20.62
2018-11-01T19:39:31.878Z,17.42
2018-11-01T19:42:00.848Z,18.87
2018-11-01T19:44:29.286Z,16.95
2018-11-01T19:46:57.694Z,16.25
2018-11-01T19:49:26.341Z,19.98
2018-11-01T19:51:54.600Z,16.62
2018-11-01T19:54:23.039Z,17.27
2018-11-01T19:56:51.506Z,21.10
2018-11-01T19:59:20.582Z,15.70
2018-11-01T20:01:49.023Z,18.73
2018-11-01T20:04:17.581Z,16.42
2018-11-01T20:06:45.936Z,18.23
2018-11-01T20:09:14.399Z,15.40
2018-11-01T20:11:42.863Z,19.35
2018-11-01T20:14:11.229Z,22.82
2018-11-01T20:16:40.351Z,18.62
2018-11-01T20:19:08.862Z,17.15
2018-11-01T20:21:37.205Z,17.90
2018-11-01T20:24:05.743Z,17.92
2018-11-01T20:26:34.217Z,17.25
2018-11-01T20:29:02.711Z,19.27
2018-11-01T20:31:31.179Z,16.12
2018-11-01T20:33:59.483Z,17.12
2018-11-01T20:36:28.034Z,18.60
2018-11-01T20:38:56.444Z,19.75
2018-11-01T20:41:24.838Z,16.20
2018-11-01T20:43:53.258Z,18.60
2018-11-01T20:46:21.867Z,18.02
2018-11-01T20:48:50.301Z,19.57
2018-11-01T20:51:18.677Z,16.90
2018-11-01T20:53:47.109Z,16.50
2018-11-01T20:56:15.570Z,17.82
2018-11-01T20:58:43.946Z,21.12
2018-11-01T21:01:12.352Z,16.07
2018-11-01T21:03:40.766Z,15.88
2018-11-01T21:06:09.195Z,19.70
2018-11-01T21:08:37.647Z,15.93
2018-11-01T21:11:06.044Z,16.65
2018-11-01T21:13:34.620Z,14.38
2018-11-01T21:16:03.050Z,15.72
2018-11-01T21:18:31.434Z,15.03
2018-11-01T21:20:59.841Z,14.93
2018-11-01T21:23:28.369Z,15.00
2018-11-01T21:25:56.901Z,14.65
2018-11-01T21:28:25.287Z,17.52
2018-11-01T21:30:53.683Z,15.90
2018-11-01T21:33:22.031Z,14.10
2018-11-01T21:35:50.525Z,16.32
2018-11-01T21:38:18.822Z,17.57
2018-11-01T21:40:47.390Z,20.15
2018-11-01T21:43:15.782Z,14.20
2018-11-01T21:45:44.268Z,13.03
2018-11-01T21:48:12.715Z,16.00
2018-11-01T21:50:41.276Z,13.62
2018-11-01T21:53:09.844Z,16.10
2018-11-01T21:55:38.135Z,13.80
2018-11-01T21:58:06.776Z,13.98
2018-11-01T22:00:35.293Z,12.82
2018-11-01T22:03:03.662Z,12.70
2018-11-01T22:05:32.171Z,12.25
2018-11-01T22:08:00.556Z,13.55
2018-11-01T22:10:28.978Z,12.33
2018-11-01T22:12:57.483Z,13.48
2018-11-01T22:15:25.990Z,12.30
2018-11-01T22:17:54.424Z,12.78
2018-11-01T22:20:22.810Z,11.15
2018-11-01T22:22:51.194Z,12.25
2018-11-01T22:25:19.615Z,12.35
2018-11-01T22:27:48.041Z,11.38
2018-11-01T22:30:17.277Z,10.80
2018-11-01T22:32:45.666Z,9.05
2018-11-01T22:35:14.045Z,10.00
2018-11-01T22:37:42.962Z,9.65
2018-11-01T22:40:11.325Z,11.70
2018-11-01T22:42:39.676Z,10.50
2018-11-01T22:45:09.596Z,10.78
2018-11-01T22:47:38.024Z,10.35
2018-11-01T22:50:07.377Z,9.50
2018-11-01T22:52:36.527Z,9.83
2018-11-01T22:55:06.283Z,11.78
2018-11-01T22:57:35.034Z,12.03
2018-11-01T23:00:04.586Z,14.13
2018-11-01T23:02:32.848Z,14.05
2018-11-01T23:05:01.224Z,13.40
2018-11-01T23:07:30.098Z,14.20
2018-11-01T23:09:58.543Z,14.75
2018-11-01T23:12:26.994Z,14.15
2018-11-01T23:14:55.555Z,17.02
2018-11-01T23:17:23.876Z,13.62
2018-11-01T23:19:52.379Z,14.30
2018-11-01T23:22:20.739Z,14.10
2018-11-01T23:24:49.112Z,15.10
2018-11-01T23:27:17.491Z,16.42
2018-11-01T23:29:45.902Z,12.25
2018-11-01T23:32:14.319Z,13.55
2018-11-01T23:34:42.710Z,13.98
2018-11-01T23:37:16.463Z,16.50
2018-11-01T23:39:50.246Z,13.85
2018-11-01T23:42:23.916Z,13.28
2018-11-01T23:44:57.576Z,12.75
2018-11-01T23:47:32.160Z,11.88
2018-11-01T23:50:13.699Z,12.90
2018-11-01T23:52:43.977Z,14.95
2018-11-01T23:55:12.437Z,13.08
2018-11-01T23:57:41.530Z,11.90
